Cabo Da Roca — CSZQ — position and weather

sailwx.info

Track history (hours):
 
Tides and Currents Weather Stations Pressure Air Temp Water Temp Dewpoint Dewpoint Depression Visibility Wind Speed Wind Dir Waves Ship Positions

Cabo Da Roca

Last reported at 2017-Sep-19 17:06 UTC. Time now 2017-Sep-24 08:34 UTC.
Position N 38°42' W 009°10'.

Length 28 m.

Type: Tug. MMSI: 263601790.

Date/timePositionNaut miles runAvg speedWind from/ knotsBaromVisibWave heightAir tempDewpointWater temp
2017-Sep-19 17:06N 38°42' W 009°10'0 0.0
2017-Sep-19 16:57N 38°42' W 009°10'0 0.3
2017-Sep-19 16:19N 38°42' W 009°10'0 0.5
2017-Sep-19 15:58N 38°42' W 009°09'0 0.3
2017-Sep-19 15:29N 38°42' W 009°10'0 0.2
2017-Sep-19 14:55N 38°42' W 009°09'0 0.1
2017-Sep-19 13:47N 38°42' W 009°10'0 0.2
2017-Sep-19 13:21N 38°42' W 009°09'0 0.2
2017-Sep-19 12:43N 38°42' W 009°09'0 0.0
2017-Sep-17 13:43N 38°42' W 009°10'1 4.3
2017-Sep-17 13:29N 38°41' W 009°10'1 1.1
2017-Sep-17 12:48N 38°41' W 009°11'0 0.4
2017-Sep-17 12:27N 38°41' W 009°11'0 0.7
2017-Sep-17 11:59N 38°41' W 009°11'1 1.8
2017-Sep-17 11:11N 38°42' W 009°10'0 0.0
2017-Sep-17 10:53N 38°42' W 009°10'0 0.0
2017-Sep-15 13:13N 38°42' W 009°09'5 9.0
2017-Sep-15 12:42N 38°46' W 009°05'0 0.2
2017-Sep-15 12:27N 38°46' W 009°05'3 3.6
2017-Sep-15 11:39N 38°43' W 009°07'1 6.8
2017-Sep-15 11:30N 38°42' W 009°08'1 0.0
2017-Sep-13 08:03N 38°42' W 009°09'1 8.2
2017-Sep-13 07:55N 38°42' W 009°08'1 1.2
2017-Sep-13 06:57N 38°43' W 009°07'2 4.7
2017-Sep-13 06:28N 38°42' W 009°10'0 0.4
2017-Sep-13 05:48N 38°42' W 009°10'0 1.3
2017-Sep-13 05:29N 38°42' W 009°10'1 1.0
2017-Sep-13 04:57N 38°42' W 009°10'0 0.0
2017-Sep-12 07:49N 38°42' W 009°10'3 8.3
2017-Sep-12 07:28N 38°41' W 009°13'1 1.5
2017-Sep-12 06:59N 38°41' W 009°14'1 2.7
2017-Sep-12 06:30N 38°41' W 009°12'  
Track history (hours):
 
Tides and Currents Weather Stations Pressure Air Temp Water Temp Dewpoint Dewpoint Depression Visibility Wind Speed Wind Dir Waves Ship Positions

Cabo Da Roca

Last reported at 2017-Sep-19 17:06 UTC. Time now 2017-Sep-24 08:34 UTC.
Position N 38°42' W 009°10'.

Length 28 m.

Type: Tug. MMSI: 263601790.

Date/timePositionNaut miles runAvg speedWind from/ knotsBaromVisibWave heightAir tempDewpointWater temp
2017-Sep-19 17:06N 38°42' W 009°10'0 0.0
2017-Sep-19 16:57N 38°42' W 009°10'0 0.3
2017-Sep-19 16:19N 38°42' W 009°10'0 0.5
2017-Sep-19 15:58N 38°42' W 009°09'0 0.3
2017-Sep-19 15:29N 38°42' W 009°10'0 0.2
2017-Sep-19 14:55N 38°42' W 009°09'0 0.1
2017-Sep-19 13:47N 38°42' W 009°10'0 0.2
2017-Sep-19 13:21N 38°42' W 009°09'0 0.2
2017-Sep-19 12:43N 38°42' W 009°09'0 0.0
2017-Sep-17 13:43N 38°42' W 009°10'1 4.3
2017-Sep-17 13:29N 38°41' W 009°10'1 1.1
2017-Sep-17 12:48N 38°41' W 009°11'0 0.4
2017-Sep-17 12:27N 38°41' W 009°11'0 0.7
2017-Sep-17 11:59N 38°41' W 009°11'1 1.8
2017-Sep-17 11:11N 38°42' W 009°10'0 0.0
2017-Sep-17 10:53N 38°42' W 009°10'0 0.0
2017-Sep-15 13:13N 38°42' W 009°09'5 9.0
2017-Sep-15 12:42N 38°46' W 009°05'0 0.2
2017-Sep-15 12:27N 38°46' W 009°05'3 3.6
2017-Sep-15 11:39N 38°43' W 009°07'1 6.8
2017-Sep-15 11:30N 38°42' W 009°08'1 0.0
2017-Sep-13 08:03N 38°42' W 009°09'1 8.2
2017-Sep-13 07:55N 38°42' W 009°08'1 1.2
2017-Sep-13 06:57N 38°43' W 009°07'2 4.7
2017-Sep-13 06:28N 38°42' W 009°10'0 0.4
2017-Sep-13 05:48N 38°42' W 009°10'0 1.3
2017-Sep-13 05:29N 38°42' W 009°10'1 1.0
2017-Sep-13 04:57N 38°42' W 009°10'0 0.0
2017-Sep-12 07:49N 38°42' W 009°10'3 8.3
2017-Sep-12 07:28N 38°41' W 009°13'1 1.5
2017-Sep-12 06:59N 38°41' W 009°14'1 2.7
2017-Sep-12 06:30N 38°41' W 009°12'  

Dump ship's entire track history